Time;durP1;ratioP1;P1;durP2;ratioP2;P2;SDS_P1;SDS_P2;PMS_P1;PMS_P2;Temp;Humidity;BMP_temperature;BMP_pressure;BME280_temperature;BME280_humidity;BME280_pressure;Samples;Min_cycle;Max_cycle;Signal;HPM_P1;HPM_P2
2021/12/01 00:00:33;;;;;;;1999.90;999.90;;;;;;;;;;4961128;28;20470;-89
2021/12/01 00:02:59;;;;;;;1999.90;999.90;;;;;;;;;;4965951;28;20057;-88
2021/12/01 00:05:29;;;;;;;1999.90;999.90;;;;;;;;;;4963644;28;20046;-89
2021/12/01 00:07:59;;;;;;;1999.90;999.90;;;;;;;;;;4963512;28;20084;-89
2021/12/01 00:10:28;;;;;;;1999.90;999.90;;;;;;;;;;4996540;28;20133;-88
2021/12/01 00:12:56;;;;;;;1616.68;758.03;;;;;;;;;;4980633;28;20520;-88
2021/12/01 00:15:23;;;;;;;1999.90;999.90;;;;;;;;;;4976799;28;20399;-88
2021/12/01 00:17:50;;;;;;;1999.90;999.90;;;;;;;;;;4990226;28;20392;-88
2021/12/01 00:20:18;;;;;;;1999.90;999.90;;;;;;;;;;4964151;28;20029;-89
2021/12/01 00:22:51;;;;;;;1999.90;999.90;;;;;;;;;;4979605;28;20775;-88
2021/12/01 00:25:22;;;;;;;1999.90;999.90;;;;;;;;;;4964510;28;20060;-88
2021/12/01 00:27:51;;;;;;;1641.00;760.10;;;;;;;;;;4964595;28;20391;-90
2021/12/01 00:30:19;;;;;;;1999.90;999.90;;;;;;;;;;4995947;28;20070;-89
2021/12/01 00:32:45;;;;;;;1999.90;999.90;;;;;;;;;;4961152;28;20526;-89
2021/12/01 00:35:10;;;;;;;1999.90;999.90;;;;;;;;;;4963987;28;20128;-89
2021/12/01 00:37:37;;;;;;;1999.90;999.90;;;;;;;;;;4963752;28;20036;-88
2021/12/01 00:40:05;;;;;;;1999.90;999.90;;;;;;;;;;4963526;28;20022;-89
2021/12/01 00:42:31;;;;;;;1999.90;999.90;;;;;;;;;;4964448;28;20022;-89
2021/12/01 00:45:06;;;;;;;1999.90;999.90;;;;;;;;;;4964073;28;20045;-89
2021/12/01 00:48:08;;;;;;;1999.90;999.90;;;;;;;;;;4977656;28;20436;-89
2021/12/01 00:50:32;;;;;;;1999.90;999.90;;;;;;;;;;4980854;28;20197;-89
2021/12/01 00:53:05;;;;;;;1599.05;759.00;;;;;;;;;;4964953;28;20392;-88
2021/12/01 00:55:32;;;;;;;1999.90;999.90;;;;;;;;;;4963957;28;20032;-88
2021/12/01 00:57:59;;;;;;;1999.90;999.90;;;;;;;;;;4975968;28;20054;-88
2021/12/01 01:00:28;;;;;;;1999.90;999.90;;;;;;;;;;4994892;28;20381;-89
2021/12/01 01:02:56;;;;;;;1999.90;999.90;;;;;;;;;;4979782;28;20026;-88
2021/12/01 01:05:21;;;;;;;1059.10;505.58;;;;;;;;;;4979067;28;20030;-88
2021/12/01 01:07:50;;;;;;;1999.90;999.90;;;;;;;;;;4962639;28;20519;-88
2021/12/01 01:18:34;;;;;;;1999.90;999.90;;;;;;;;;;5014443;28;20129;-89
2021/12/01 01:21:06;;;;;;;1999.90;999.90;;;;;;;;;;4983307;28;20512;-87
2021/12/01 01:23:35;;;;;;;1999.90;999.90;;;;;;;;;;4983339;28;20108;-89
2021/12/01 01:26:04;;;;;;;1999.90;999.90;;;;;;;;;;4967039;28;20244;-88
2021/12/01 01:28:31;;;;;;;1999.90;999.90;;;;;;;;;;4999133;28;20522;-88
2021/12/01 01:30:58;;;;;;;1999.90;999.90;;;;;;;;;;4983155;28;20030;-88
2021/12/01 01:33:25;;;;;;;1999.90;999.90;;;;;;;;;;4963802;28;20033;-89
2021/12/01 01:35:52;;;;;;;1999.90;999.90;;;;;;;;;;4995959;28;20030;-88
2021/12/01 01:38:17;;;;;;;1999.90;999.90;;;;;;;;;;4963285;28;20062;-89
2021/12/01 01:40:44;;;;;;;1999.90;999.90;;;;;;;;;;4976516;28;20068;-89
2021/12/01 01:43:10;;;;;;;1999.90;999.90;;;;;;;;;;4966574;28;20038;-88
2021/12/01 01:45:36;;;;;;;1999.90;999.90;;;;;;;;;;4966689;28;20133;-88
2021/12/01 01:48:08;;;;;;;1999.90;999.90;;;;;;;;;;4967069;28;20484;-88
2021/12/01 01:50:37;;;;;;;1999.90;999.90;;;;;;;;;;4998855;28;20065;-87
2021/12/01 01:53:13;;;;;;;1999.90;999.90;;;;;;;;;;4966528;28;20395;-89
2021/12/01 01:55:41;;;;;;;1999.90;999.90;;;;;;;;;;4967137;28;20390;-88
2021/12/01 01:58:07;;;;;;;1999.90;999.90;;;;;;;;;;4982928;28;20029;-87
2021/12/01 02:00:44;;;;;;;1999.90;999.90;;;;;;;;;;4963561;28;20038;-87
2021/12/01 02:03:15;;;;;;;1999.90;999.90;;;;;;;;;;5015937;28;20541;-88
2021/12/01 02:05:41;;;;;;;1999.90;999.90;;;;;;;;;;4982785;28;20061;-88
2021/12/01 02:08:20;;;;;;;1999.90;999.90;;;;;;;;;;4982401;28;20112;-88
2021/12/01 02:10:50;;;;;;;1999.90;999.90;;;;;;;;;;4984119;28;20117;-88
2021/12/01 02:13:16;;;;;;;1999.90;999.90;;;;;;;;;;4978799;28;20034;-88
2021/12/01 02:15:44;;;;;;;1999.90;999.90;;;;;;;;;;4982020;28;20026;-87
2021/12/01 02:18:09;;;;;;;1999.90;999.90;;;;;;;;;;4965558;28;20109;-87
2021/12/01 02:20:35;;;;;;;1999.90;999.90;;;;;;;;;;4965440;28;20129;-87
2021/12/01 02:23:00;;;;;;;1999.90;999.90;;;;;;;;;;4981539;28;20609;-88
2021/12/01 02:25:27;;;;;;;1999.90;999.90;;;;;;;;;;4981912;28;20041;-87
2021/12/01 02:27:52;;;;;;;1999.90;999.90;;;;;;;;;;4966527;28;20061;-88
2021/12/01 02:30:18;;;;;;;1999.90;999.90;;;;;;;;;;4980673;28;20514;-86
2021/12/01 02:32:44;;;;;;;1999.90;999.90;;;;;;;;;;4962351;28;20029;-87
2021/12/01 02:35:10;;;;;;;1999.90;999.90;;;;;;;;;;4978988;28;20038;-87
2021/12/01 02:37:36;;;;;;;1999.90;999.90;;;;;;;;;;4995066;28;20061;-87
2021/12/01 02:40:03;;;;;;;1999.90;999.90;;;;;;;;;;4953056;28;20044;-88
2021/12/01 02:42:31;;;;;;;1999.90;999.90;;;;;;;;;;4981861;28;20038;-87
2021/12/01 02:44:59;;;;;;;1999.90;999.90;;;;;;;;;;4981459;28;20439;-87
2021/12/01 02:47:27;;;;;;;1999.90;999.90;;;;;;;;;;4981488;28;20034;-87
2021/12/01 02:49:55;;;;;;;1999.90;999.90;;;;;;;;;;4965345;28;20026;-88
2021/12/01 02:52:22;;;;;;;1999.90;999.90;;;;;;;;;;4965850;28;20033;-87
2021/12/01 02:54:48;;;;;;;1999.90;999.90;;;;;;;;;;4965829;28;20068;-87
2021/12/01 02:57:14;;;;;;;1999.90;999.90;;;;;;;;;;4965317;28;20038;-87
2021/12/01 02:59:41;;;;;;;1999.90;999.90;;;;;;;;;;4981207;28;20488;-87
2021/12/01 03:02:07;;;;;;;1999.90;999.90;;;;;;;;;;4964669;28;20057;-87
2021/12/01 03:04:35;;;;;;;1999.90;999.90;;;;;;;;;;4980998;28;20040;-88
2021/12/01 03:07:03;;;;;;;1999.90;999.90;;;;;;;;;;4980948;28;20630;-87
2021/12/01 03:09:28;;;;;;;1999.90;999.90;;;;;;;;;;4993743;28;20041;-88
2021/12/01 03:11:54;;;;;;;1999.90;999.90;;;;;;;;;;4962349;28;20038;-88
2021/12/01 03:14:19;;;;;;;1999.90;999.90;;;;;;;;;;4981106;28;20034;-87
2021/12/01 03:16:49;;;;;;;1999.90;999.90;;;;;;;;;;4980993;28;20040;-88
2021/12/01 03:19:18;;;;;;;1999.90;999.90;;;;;;;;;;4965174;28;20033;-89
2021/12/01 03:21:44;;;;;;;1999.90;999.90;;;;;;;;;;4980868;28;20034;-88
2021/12/01 03:24:15;;;;;;;1999.90;999.90;;;;;;;;;;4996992;28;20034;-87
2021/12/01 03:26:44;;;;;;;1999.90;999.90;;;;;;;;;;4981199;28;20034;-88
2021/12/01 03:29:13;;;;;;;1999.90;999.90;;;;;;;;;;4981344;28;20676;-88
2021/12/01 03:31:41;;;;;;;1999.90;999.90;;;;;;;;;;4965509;28;20022;-89
2021/12/01 03:34:08;;;;;;;1999.90;999.90;;;;;;;;;;4981091;28;20026;-89
2021/12/01 03:36:36;;;;;;;1999.90;999.90;;;;;;;;;;4964755;28;20021;-88
2021/12/01 03:39:04;;;;;;;1999.90;999.90;;;;;;;;;;4965124;28;20037;-89
2021/12/01 03:41:34;;;;;;;1999.90;999.90;;;;;;;;;;4964598;28;20026;-88
2021/12/01 03:44:03;;;;;;;1999.90;999.90;;;;;;;;;;4965052;28;20057;-89
2021/12/01 03:46:31;;;;;;;1999.90;999.90;;;;;;;;;;4980713;28;20033;-89
2021/12/01 03:48:58;;;;;;;1999.90;999.90;;;;;;;;;;4981233;28;20034;-89
2021/12/01 03:51:27;;;;;;;1999.90;999.90;;;;;;;;;;4980615;28;20026;-89
2021/12/01 03:53:59;;;;;;;1999.90;999.90;;;;;;;;;;4980636;28;20396;-88
2021/12/01 03:56:25;;;;;;;1999.90;999.90;;;;;;;;;;4980908;28;20065;-88
2021/12/01 03:58:53;;;;;;;1999.90;999.90;;;;;;;;;;4980551;28;20058;-89
2021/12/01 04:01:20;;;;;;;1631.20;772.30;;;;;;;;;;4980911;28;20026;-88
2021/12/01 04:03:45;;;;;;;1999.90;999.90;;;;;;;;;;4980493;28;20038;-88
2021/12/01 04:06:14;;;;;;;1999.90;999.90;;;;;;;;;;4979523;28;20043;-89
2021/12/01 04:08:41;;;;;;;1999.90;999.90;;;;;;;;;;5002730;28;20121;-90
2021/12/01 04:11:07;;;;;;;1999.90;999.90;;;;;;;;;;4990678;28;20036;-88
2021/12/01 04:13:34;;;;;;;1999.90;999.90;;;;;;;;;;4964244;28;20034;-89
2021/12/01 04:16:03;;;;;;;1999.90;999.90;;;;;;;;;;4952710;28;20030;-88
2021/12/01 04:18:29;;;;;;;1999.90;999.90;;;;;;;;;;4977180;28;20053;-87
2021/12/01 04:20:55;;;;;;;1999.90;999.90;;;;;;;;;;4976744;28;20125;-89
2021/12/01 04:23:20;;;;;;;1999.90;999.90;;;;;;;;;;4993289;28;20030;-86
2021/12/01 04:25:48;;;;;;;1999.90;999.90;;;;;;;;;;4970667;28;20079;-88
2021/12/01 04:28:14;;;;;;;1999.90;999.90;;;;;;;;;;4963706;28;20587;-88
2021/12/01 04:30:41;;;;;;;1999.90;999.90;;;;;;;;;;4980059;28;20079;-88
2021/12/01 04:33:08;;;;;;;1999.90;999.90;;;;;;;;;;4979838;28;20033;-87
2021/12/01 04:35:34;;;;;;;1999.90;999.90;;;;;;;;;;4963657;28;20396;-87
2021/12/01 04:38:01;;;;;;;1999.90;999.90;;;;;;;;;;4979570;28;20037;-88
2021/12/01 04:40:30;;;;;;;1999.90;999.90;;;;;;;;;;4963901;28;20488;-87
2021/12/01 04:42:56;;;;;;;1999.90;999.90;;;;;;;;;;4963603;28;20063;-89
2021/12/01 04:45:25;;;;;;;1999.90;999.90;;;;;;;;;;4963716;28;20029;-88
2021/12/01 04:47:54;;;;;;;1197.68;533.83;;;;;;;;;;4979899;28;20125;-89
2021/12/01 04:50:24;;;;;;;1999.90;999.90;;;;;;;;;;4995095;28;20034;-89
2021/12/01 04:52:54;;;;;;;1999.90;999.90;;;;;;;;;;4979397;28;20477;-90
2021/12/01 04:55:20;;;;;;;1999.90;999.90;;;;;;;;;;4980695;28;20056;-91
2021/12/01 04:57:49;;;;;;;1999.90;999.90;;;;;;;;;;4979749;28;20038;-90
2021/12/01 05:00:19;;;;;;;1999.90;999.90;;;;;;;;;;4979544;28;20495;-90
2021/12/01 05:02:47;;;;;;;1999.90;999.90;;;;;;;;;;4980016;28;20034;-90
2021/12/01 05:05:13;;;;;;;1999.90;999.90;;;;;;;;;;4962740;28;20445;-90
2021/12/01 05:07:39;;;;;;;1999.90;999.90;;;;;;;;;;4979416;28;20113;-88
2021/12/01 05:10:08;;;;;;;1999.90;999.90;;;;;;;;;;4979553;28;20038;-90
2021/12/01 05:12:36;;;;;;;1999.90;999.90;;;;;;;;;;4979640;28;20076;-90
2021/12/01 05:15:05;;;;;;;1999.90;999.90;;;;;;;;;;4979248;28;20387;-89
2021/12/01 05:17:34;;;;;;;1999.90;999.90;;;;;;;;;;4963616;28;20037;-89
2021/12/01 05:20:01;;;;;;;1999.90;999.90;;;;;;;;;;4979281;28;20520;-89
2021/12/01 05:22:27;;;;;;;1999.90;999.90;;;;;;;;;;4978313;28;20026;-89
2021/12/01 05:24:53;;;;;;;1999.90;999.90;;;;;;;;;;4963044;28;20132;-90
2021/12/01 05:27:19;;;;;;;1999.90;999.90;;;;;;;;;;4979283;28;20064;-89
2021/12/01 05:29:48;;;;;;;1999.90;999.90;;;;;;;;;;4963711;28;20030;-89
2021/12/01 05:32:22;;;;;;;1999.90;999.90;;;;;;;;;;4996004;28;20030;-89
2021/12/01 05:34:50;;;;;;;1999.90;999.90;;;;;;;;;;4979278;28;20396;-89
2021/12/01 05:37:18;;;;;;;1999.90;999.90;;;;;;;;;;4962978;28;20080;-88
2021/12/01 05:39:47;;;;;;;1999.90;999.90;;;;;;;;;;4963226;28;20029;-89
2021/12/01 05:42:16;;;;;;;1999.90;999.90;;;;;;;;;;4963843;28;20030;-88
2021/12/01 05:44:43;;;;;;;1999.90;999.90;;;;;;;;;;4963588;28;20025;-88
2021/12/01 05:47:10;;;;;;;1999.90;999.90;;;;;;;;;;4976272;28;20397;-88
2021/12/01 05:49:41;;;;;;;1999.90;999.90;;;;;;;;;;4978948;28;20496;-88
2021/12/01 05:52:12;;;;;;;1999.90;999.90;;;;;;;;;;4964408;28;20041;-88
2021/12/01 05:54:40;;;;;;;1999.90;999.90;;;;;;;;;;4962759;28;20034;-88
2021/12/01 05:57:08;;;;;;;1999.90;999.90;;;;;;;;;;4962916;28;20046;-88
2021/12/01 05:59:35;;;;;;;1999.90;999.90;;;;;;;;;;4978786;28;20096;-88
2021/12/01 06:02:01;;;;;;;1999.90;999.90;;;;;;;;;;4979112;28;20057;-88
2021/12/01 06:04:28;;;;;;;1999.90;999.90;;;;;;;;;;4981115;28;20044;-82
2021/12/01 06:06:53;;;;;;;1999.90;999.90;;;;;;;;;;4981183;28;20030;-82
2021/12/01 06:09:19;;;;;;;1999.90;999.90;;;;;;;;;;4967206;28;20036;-82
2021/12/01 06:11:46;;;;;;;1999.90;999.90;;;;;;;;;;4986509;28;20033;-84
2021/12/01 06:14:16;;;;;;;1999.90;999.90;;;;;;;;;;4960433;28;20029;-94
2021/12/01 06:16:46;;;;;;;1999.90;999.90;;;;;;;;;;4994371;28;20038;-90
2021/12/01 06:19:12;;;;;;;1999.90;999.90;;;;;;;;;;4977669;28;20033;-84
2021/12/01 06:21:37;;;;;;;1999.90;999.90;;;;;;;;;;5007155;28;20388;-83
2021/12/01 06:24:03;;;;;;;1999.90;999.90;;;;;;;;;;4981216;28;20091;-84
2021/12/01 06:26:28;;;;;;;1999.90;999.90;;;;;;;;;;4964160;28;20459;-83
2021/12/01 06:28:54;;;;;;;1999.90;999.90;;;;;;;;;;4965027;28;20076;-85
2021/12/01 06:31:20;;;;;;;1999.90;999.90;;;;;;;;;;4964938;28;20042;-84
2021/12/01 06:33:46;;;;;;;1999.90;999.90;;;;;;;;;;4964449;28;20029;-89
2021/12/01 06:36:11;;;;;;;1999.90;999.90;;;;;;;;;;4980761;28;20072;-81
2021/12/01 06:38:39;;;;;;;1999.90;999.90;;;;;;;;;;4976690;28;20038;-82
2021/12/01 06:41:04;;;;;;;1999.90;999.90;;;;;;;;;;4996744;28;20029;-82
2021/12/01 06:43:29;;;;;;;1999.90;999.90;;;;;;;;;;4976941;28;20053;-82
2021/12/01 06:45:55;;;;;;;1999.90;999.90;;;;;;;;;;4977625;28;20038;-83
2021/12/01 06:48:20;;;;;;;1999.90;999.90;;;;;;;;;;4977638;28;20030;-83
2021/12/01 06:50:46;;;;;;;1999.90;999.90;;;;;;;;;;4961162;28;20030;-81
2021/12/01 06:53:11;;;;;;;1999.90;999.90;;;;;;;;;;4976805;28;20092;-82
2021/12/01 06:55:36;;;;;;;1999.90;999.90;;;;;;;;;;4960964;28;20397;-83
2021/12/01 06:58:02;;;;;;;1999.90;999.90;;;;;;;;;;5008166;28;20427;-83
2021/12/01 07:00:27;;;;;;;1999.90;999.90;;;;;;;;;;4964028;28;20042;-83
2021/12/01 07:02:53;;;;;;;1999.90;999.90;;;;;;;;;;4996182;28;20088;-83
2021/12/01 07:05:18;;;;;;;1999.90;999.90;;;;;;;;;;4980357;28;20045;-82
2021/12/01 07:07:44;;;;;;;1999.90;999.90;;;;;;;;;;4984437;28;20033;-83
2021/12/01 07:10:10;;;;;;;1999.90;999.90;;;;;;;;;;5015672;28;20033;-83
2021/12/01 07:12:36;;;;;;;1999.90;999.90;;;;;;;;;;4999669;28;20051;-82
2021/12/01 07:15:03;;;;;;;1999.90;999.90;;;;;;;;;;4996114;28;20116;-82
2021/12/01 07:17:28;;;;;;;1999.90;999.90;;;;;;;;;;4978624;28;20026;-82
2021/12/01 07:19:54;;;;;;;1999.90;999.90;;;;;;;;;;4993680;28;20554;-84
2021/12/01 07:22:19;;;;;;;1999.90;999.90;;;;;;;;;;4993873;28;20176;-82
2021/12/01 07:24:45;;;;;;;1999.90;999.90;;;;;;;;;;4994192;28;20044;-83
2021/12/01 07:27:10;;;;;;;1999.90;999.90;;;;;;;;;;4994107;28;20187;-85
2021/12/01 07:29:36;;;;;;;1999.90;999.90;;;;;;;;;;4978951;28;20373;-82
2021/12/01 07:32:03;;;;;;;1999.90;999.90;;;;;;;;;;4992642;28;20025;-81
2021/12/01 07:34:28;;;;;;;1999.90;999.90;;;;;;;;;;4977416;28;20030;-86
2021/12/01 07:36:53;;;;;;;1999.90;999.90;;;;;;;;;;4962622;28;20041;-86
2021/12/01 07:39:19;;;;;;;1999.90;999.90;;;;;;;;;;4963115;28;20049;-84
2021/12/01 07:41:46;;;;;;;1999.90;999.90;;;;;;;;;;4991317;28;20460;-86
2021/12/01 07:44:11;;;;;;;1999.90;999.90;;;;;;;;;;4972166;28;20037;-83
2021/12/01 07:46:36;;;;;;;1999.90;999.90;;;;;;;;;;5011290;28;20535;-84
2021/12/01 07:49:02;;;;;;;1999.90;999.90;;;;;;;;;;4995363;28;20034;-84
2021/12/01 07:51:27;;;;;;;1999.90;999.90;;;;;;;;;;4962696;28;20033;-83
2021/12/01 07:53:55;;;;;;;1999.90;999.90;;;;;;;;;;4963526;28;20034;-83
2021/12/01 07:56:20;;;;;;;1999.90;999.90;;;;;;;;;;4994793;28;20049;-83
2021/12/01 07:58:45;;;;;;;1999.90;999.90;;;;;;;;;;4995201;28;20113;-84
2021/12/01 08:01:11;;;;;;;1999.90;999.90;;;;;;;;;;4979083;28;20037;-83
2021/12/01 08:03:36;;;;;;;1999.90;999.90;;;;;;;;;;4962947;28;20038;-83
2021/12/01 08:06:02;;;;;;;1999.90;999.90;;;;;;;;;;4962891;28;20109;-84
2021/12/01 08:08:27;;;;;;;1999.90;999.90;;;;;;;;;;5005861;28;20068;-84
2021/12/01 08:10:53;;;;;;;1999.90;999.90;;;;;;;;;;5031276;28;20486;-84
2021/12/01 08:13:18;;;;;;;1999.90;999.90;;;;;;;;;;5014956;28;20021;-84
2021/12/01 08:15:45;;;;;;;1999.90;999.90;;;;;;;;;;4998014;28;20026;-84
2021/12/01 08:18:11;;;;;;;1999.90;999.90;;;;;;;;;;4995702;28;20495;-84
2021/12/01 08:20:37;;;;;;;1999.90;999.90;;;;;;;;;;4994511;28;20026;-84
2021/12/01 08:23:02;;;;;;;1999.90;999.90;;;;;;;;;;4979203;28;20443;-84
2021/12/01 08:25:28;;;;;;;1999.90;999.90;;;;;;;;;;4978948;28;20384;-83
2021/12/01 08:27:53;;;;;;;1999.90;999.90;;;;;;;;;;4961754;28;20045;-83
2021/12/01 08:30:19;;;;;;;1999.90;999.90;;;;;;;;;;4962529;28;20040;-83
2021/12/01 08:32:47;;;;;;;1999.90;999.90;;;;;;;;;;4975330;28;20050;-83
2021/12/01 08:35:13;;;;;;;1999.90;999.90;;;;;;;;;;4975872;28;20101;-83
2021/12/01 08:37:38;;;;;;;1999.90;999.90;;;;;;;;;;4975467;28;20118;-83
2021/12/01 08:40:04;;;;;;;1999.90;999.90;;;;;;;;;;4991276;28;20396;-83
2021/12/01 08:42:30;;;;;;;1999.90;999.90;;;;;;;;;;4991482;28;20140;-84
2021/12/01 08:44:55;;;;;;;1999.90;999.90;;;;;;;;;;4975247;28;20436;-83
2021/12/01 08:47:22;;;;;;;1999.90;999.90;;;;;;;;;;4975179;28;20040;-84
2021/12/01 08:49:48;;;;;;;1999.90;999.90;;;;;;;;;;4991249;28;20111;-83
2021/12/01 08:52:14;;;;;;;1999.90;999.90;;;;;;;;;;4975157;28;20027;-83
2021/12/01 08:54:40;;;;;;;1999.90;999.90;;;;;;;;;;4975035;28;20035;-84
2021/12/01 08:57:05;;;;;;;1999.90;999.90;;;;;;;;;;4975238;28;20161;-84
2021/12/01 08:59:31;;;;;;;1999.90;999.90;;;;;;;;;;4975113;28;20397;-83
2021/12/01 09:01:56;;;;;;;1999.90;999.90;;;;;;;;;;4943006;28;20037;-83
2021/12/01 09:04:22;;;;;;;1999.90;999.90;;;;;;;;;;4974666;28;20065;-84
2021/12/01 09:06:47;;;;;;;1999.90;999.90;;;;;;;;;;4990892;28;20032;-84
2021/12/01 09:09:18;;;;;;;1999.90;999.90;;;;;;;;;;5008853;28;20037;-84
2021/12/01 09:11:48;;;;;;;1999.90;999.90;;;;;;;;;;5014828;28;20029;-84
2021/12/01 09:14:13;;;;;;;1999.90;999.90;;;;;;;;;;4993244;28;20080;-85
2021/12/01 09:16:40;;;;;;;1999.90;999.90;;;;;;;;;;4978210;28;20022;-84
2021/12/01 09:19:05;;;;;;;1999.90;999.90;;;;;;;;;;4994105;28;20056;-84
2021/12/01 09:21:31;;;;;;;1999.90;999.90;;;;;;;;;;4994253;28;20480;-84
2021/12/01 09:23:56;;;;;;;1999.90;999.90;;;;;;;;;;4978030;28;20034;-84
2021/12/01 09:26:22;;;;;;;1999.90;999.90;;;;;;;;;;4978042;28;20041;-85
2021/12/01 09:28:47;;;;;;;1999.90;999.90;;;;;;;;;;4994089;28;20044;-85
2021/12/01 09:31:12;;;;;;;1999.90;999.90;;;;;;;;;;4994082;28;20038;-85
2021/12/01 09:33:38;;;;;;;1999.90;999.90;;;;;;;;;;4990415;28;20035;-84
2021/12/01 09:36:04;;;;;;;1999.90;999.90;;;;;;;;;;4991118;28;20384;-84
2021/12/01 09:38:29;;;;;;;1999.90;999.90;;;;;;;;;;4975343;28;20404;-84
2021/12/01 09:40:55;;;;;;;1999.90;999.90;;;;;;;;;;4962626;28;20384;-86
2021/12/01 09:43:25;;;;;;;1999.90;999.90;;;;;;;;;;4978509;28;20045;-85
2021/12/01 09:45:50;;;;;;;1999.90;999.90;;;;;;;;;;4979232;28;20562;-85
2021/12/01 09:48:15;;;;;;;1999.90;999.90;;;;;;;;;;4994461;28;20105;-85
2021/12/01 09:50:41;;;;;;;1999.90;999.90;;;;;;;;;;4962120;28;20026;-84
2021/12/01 09:53:06;;;;;;;1999.90;999.90;;;;;;;;;;4994756;28;20447;-85
2021/12/01 09:55:32;;;;;;;1999.90;999.90;;;;;;;;;;4994667;28;20496;-84
2021/12/01 09:58:02;;;;;;;1999.90;999.90;;;;;;;;;;4978430;28;20053;-85
2021/12/01 10:00:29;;;;;;;1999.90;999.90;;;;;;;;;;4994251;28;20109;-86
2021/12/01 10:02:54;;;;;;;1999.90;999.90;;;;;;;;;;4978055;28;20531;-85
2021/12/01 10:06:04;;;;;;;1999.90;999.90;;;;;;;;;;4977942;28;20496;-84
2021/12/01 10:08:38;;;;;;;1999.90;999.90;;;;;;;;;;5025291;28;20383;-84
2021/12/01 10:11:06;;;;;;;1999.90;999.90;;;;;;;;;;5017149;28;20386;-84
2021/12/01 10:13:33;;;;;;;1999.90;999.90;;;;;;;;;;5017139;28;20028;-84
2021/12/01 10:16:01;;;;;;;1999.90;999.90;;;;;;;;;;4998850;28;20044;-84
2021/12/01 10:18:27;;;;;;;1999.90;999.90;;;;;;;;;;4964847;28;20095;-85
2021/12/01 10:21:04;;;;;;;1999.90;999.90;;;;;;;;;;4981072;28;20029;-85
2021/12/01 10:23:29;;;;;;;1999.90;999.90;;;;;;;;;;4997888;28;20045;-85
2021/12/01 10:25:56;;;;;;;1999.90;999.90;;;;;;;;;;4981257;28;20469;-84
2021/12/01 10:28:55;;;;;;;1999.90;999.90;;;;;;;;;;4964792;28;20546;-84
2021/12/01 10:31:38;;;;;;;1999.90;999.90;;;;;;;;;;4998802;28;20057;-84
2021/12/01 10:34:32;;;;;;;1999.90;999.90;;;;;;;;;;4981326;28;20498;-84
2021/12/01 10:37:22;;;;;;;1999.90;999.90;;;;;;;;;;5013329;28;20034;-83
2021/12/01 10:40:01;;;;;;;1999.90;999.90;;;;;;;;;;4997210;28;20064;-85
2021/12/01 10:42:26;;;;;;;1999.90;999.90;;;;;;;;;;4982079;28;20120;-84
2021/12/01 10:45:00;;;;;;;1999.90;999.90;;;;;;;;;;4996785;28;20491;-85
2021/12/01 10:47:26;;;;;;;1999.90;999.90;;;;;;;;;;4996720;28;20034;-85
2021/12/01 10:49:51;;;;;;;1999.90;999.90;;;;;;;;;;4979410;28;20030;-85
2021/12/01 10:52:25;;;;;;;1999.90;999.90;;;;;;;;;;4980786;28;20384;-85
2021/12/01 10:55:05;;;;;;;1999.90;999.90;;;;;;;;;;5026520;28;20052;-85
2021/12/01 10:57:31;;;;;;;1999.90;999.90;;;;;;;;;;4977703;28;20125;-84
2021/12/01 10:59:56;;;;;;;1999.90;999.90;;;;;;;;;;4995693;28;20036;-84
2021/12/01 11:02:22;;;;;;;1999.90;999.90;;;;;;;;;;4995187;28;20495;-83
2021/12/01 11:04:51;;;;;;;1999.90;999.90;;;;;;;;;;4979865;28;20104;-83
2021/12/01 11:07:30;;;;;;;1999.90;999.90;;;;;;;;;;5012347;28;20536;-83
2021/12/01 11:10:18;;;;;;;1999.90;999.90;;;;;;;;;;5012541;28;20029;-83
2021/12/01 11:12:55;;;;;;;1999.90;999.90;;;;;;;;;;4996644;28;20066;-82
2021/12/01 11:15:21;;;;;;;1999.90;999.90;;;;;;;;;;4996026;28;20061;-83
2021/12/01 11:17:46;;;;;;;1999.90;999.90;;;;;;;;;;5028114;28;20490;-83
2021/12/01 11:20:12;;;;;;;1999.90;999.90;;;;;;;;;;4979940;28;20080;-83
2021/12/01 11:22:37;;;;;;;1999.90;999.90;;;;;;;;;;4979929;28;20037;-84
2021/12/01 11:25:23;;;;;;;1999.90;999.90;;;;;;;;;;4963544;28;20403;-84
2021/12/01 11:27:48;;;;;;;1999.90;999.90;;;;;;;;;;4994583;28;20053;-84
2021/12/01 11:30:14;;;;;;;1999.90;999.90;;;;;;;;;;4979565;28;20065;-83
2021/12/01 11:32:39;;;;;;;1999.90;999.90;;;;;;;;;;4963584;28;20080;-80
2021/12/01 11:35:05;;;;;;;1999.90;999.90;;;;;;;;;;4979538;28;20109;-81
2021/12/01 11:37:30;;;;;;;1999.90;999.90;;;;;;;;;;4995659;28;20475;-81
2021/12/01 11:39:56;;;;;;;1999.90;999.90;;;;;;;;;;4979467;28;20025;-81
2021/12/01 11:42:22;;;;;;;1999.90;999.90;;;;;;;;;;4995952;28;20072;-80
2021/12/01 11:44:47;;;;;;;1999.90;999.90;;;;;;;;;;5011619;28;20480;-80
2021/12/01 11:47:12;;;;;;;1999.90;999.90;;;;;;;;;;5011876;28;20042;-80
2021/12/01 11:49:38;;;;;;;1999.90;999.90;;;;;;;;;;5012235;28;20029;-80
2021/12/01 11:52:04;;;;;;;1999.90;999.90;;;;;;;;;;4995272;28;20041;-80
2021/12/01 11:54:31;;;;;;;1999.90;999.90;;;;;;;;;;4979680;28;20034;-80
2021/12/01 11:57:00;;;;;;;1999.90;999.90;;;;;;;;;;4979591;28;20041;-80
2021/12/01 11:59:26;;;;;;;1999.90;999.90;;;;;;;;;;4995465;28;20471;-79
2021/12/01 12:01:54;;;;;;;1999.90;999.90;;;;;;;;;;4995282;28;20065;-80
2021/12/01 12:04:50;;;;;;;1999.90;999.90;;;;;;;;;;5013088;28;20042;-79
2021/12/01 12:07:17;;;;;;;1999.90;999.90;;;;;;;;;;4995029;28;20618;-80
2021/12/01 12:09:44;;;;;;;1999.90;999.90;;;;;;;;;;5011592;28;20491;-79
2021/12/01 12:12:20;;;;;;;1999.90;999.90;;;;;;;;;;4994378;28;20030;-80
2021/12/01 12:14:46;;;;;;;1999.90;999.90;;;;;;;;;;4959850;28;20031;-79
2021/12/01 12:17:19;;;;;;;1999.90;999.90;;;;;;;;;;4991864;28;20034;-79
2021/12/01 12:19:51;;;;;;;1999.90;999.90;;;;;;;;;;4992162;28;20048;-79
2021/12/01 12:23:03;;;;;;;;;;;;;;;;;;5011017;28;20034;-84
2021/12/01 12:25:11;;;;;;;1999.90;999.90;;;;;;;;;;4995214;28;19963;-82
2021/12/01 12:27:39;;;;;;;1999.90;999.90;;;;;;;;;;4995016;28;20476;-82
2021/12/01 12:30:14;;;;;;;1999.90;999.90;;;;;;;;;;4962763;28;20033;-82
2021/12/01 12:32:42;;;;;;;1999.90;999.90;;;;;;;;;;4985186;28;21092;-81
2021/12/01 12:35:15;;;;;;;1999.90;999.90;;;;;;;;;;4977614;28;20040;-82
2021/12/01 12:37:41;;;;;;;1999.90;999.90;;;;;;;;;;4994553;28;20038;-82
2021/12/01 12:40:20;;;;;;;1999.90;999.90;;;;;;;;;;4975135;28;20485;-82
2021/12/01 12:43:10;;;;;;;1999.90;999.90;;;;;;;;;;5007697;28;20050;-82
2021/12/01 12:45:37;;;;;;;1999.90;999.90;;;;;;;;;;4953115;28;20057;-83
2021/12/01 12:48:23;;;;;;;1999.90;999.90;;;;;;;;;;4974630;28;20389;-83
2021/12/01 12:51:10;;;;;;;1999.90;999.90;;;;;;;;;;4969826;28;20038;-82
2021/12/01 12:53:36;;;;;;;1999.90;999.90;;;;;;;;;;5010388;28;20088;-81
2021/12/01 12:56:29;;;;;;;1999.90;999.90;;;;;;;;;;4977267;28;20056;-82
2021/12/01 12:59:27;;;;;;;1999.90;999.90;;;;;;;;;;4986862;28;20048;-82
2021/12/01 13:02:15;;;;;;;1999.90;999.90;;;;;;;;;;4958320;28;20405;-82
2021/12/01 13:05:07;;;;;;;1999.90;999.90;;;;;;;;;;4974429;28;20095;-82
2021/12/01 13:07:33;;;;;;;1999.90;999.90;;;;;;;;;;4993948;28;20034;-81
2021/12/01 13:10:06;;;;;;;1999.90;999.90;;;;;;;;;;4994633;28;20030;-82
2021/12/01 13:12:53;;;;;;;1999.90;999.90;;;;;;;;;;5010399;28;20081;-81
2021/12/01 13:15:21;;;;;;;1999.90;999.90;;;;;;;;;;5011651;28;20029;-82
2021/12/01 13:17:48;;;;;;;1999.90;999.90;;;;;;;;;;4993826;28;20026;-81
2021/12/01 13:20:13;;;;;;;1999.90;999.90;;;;;;;;;;4978155;28;20032;-81
2021/12/01 13:22:39;;;;;;;1999.90;999.90;;;;;;;;;;4994541;28;20387;-81
2021/12/01 13:25:07;;;;;;;1999.90;999.90;;;;;;;;;;5010530;28;20116;-80
2021/12/01 13:27:44;;;;;;;1999.90;999.90;;;;;;;;;;5010527;28;20044;-81
2021/12/01 13:30:10;;;;;;;1999.90;999.90;;;;;;;;;;5010488;28;20034;-81
2021/12/01 13:32:37;;;;;;;1999.90;999.90;;;;;;;;;;4993975;28;20038;-81
2021/12/01 13:35:03;;;;;;;1999.90;999.90;;;;;;;;;;4978304;28;20475;-80
2021/12/01 13:37:28;;;;;;;1999.90;999.90;;;;;;;;;;5027202;28;20058;-81
2021/12/01 13:39:54;;;;;;;1999.90;999.90;;;;;;;;;;4993733;28;20036;-81
2021/12/01 13:42:25;;;;;;;1571.10;758.10;;;;;;;;;;4993845;28;20045;-81
2021/12/01 13:44:51;;;;;;;1999.90;999.90;;;;;;;;;;4978591;28;20033;-81
2021/12/01 13:47:23;;;;;;;1999.90;999.90;;;;;;;;;;4994426;28;20042;-81
2021/12/01 13:49:50;;;;;;;1999.90;999.90;;;;;;;;;;4993937;28;20369;-81
2021/12/01 13:52:25;;;;;;;1999.90;999.90;;;;;;;;;;5011360;28;20133;-80
2021/12/01 13:54:51;;;;;;;1999.90;999.90;;;;;;;;;;5009958;28;20049;-81
2021/12/01 13:57:16;;;;;;;1999.90;999.90;;;;;;;;;;5010177;28;20117;-81